Time;durP1;ratioP1;P1;durP2;ratioP2;P2;SDS_P1;SDS_P2;PMS_P1;PMS_P2;Temp;Humidity;BMP_temperature;BMP_pressure;BME280_temperature;BME280_humidity;BME280_pressure;Samples;Min_cycle;Max_cycle;Signal;HPM_P1;HPM_P2
2023/01/05 00:01:51;;;;;;;10.63;3.90;;;9.30;99.90;;;;;;5133159;27;20196;-70
2023/01/05 00:04:20;;;;;;;15.30;3.53;;;9.20;99.90;;;;;;5133368;27;20191;-71
2023/01/05 00:06:49;;;;;;;11.93;3.77;;;9.20;99.90;;;;;;5132868;27;20276;-71
2023/01/05 00:09:18;;;;;;;14.97;3.60;;;9.20;99.90;;;;;;5124922;27;20211;-71
2023/01/05 00:23:00;;;;;;;12.53;4.43;;;9.20;99.90;;;;;;5133063;27;20196;-70
2023/01/05 00:25:32;;;;;;;12.23;4.17;;;9.20;99.90;;;;;;5132522;27;20227;-71
2023/01/05 00:28:01;;;;;;;17.90;4.77;;;9.20;99.90;;;;;;5132924;27;20228;-71
2023/01/05 00:30:34;;;;;;;15.13;3.97;;;9.20;99.90;;;;;;5113702;27;20221;-71
2023/01/05 00:33:03;;;;;;;15.53;4.30;;;9.20;99.90;;;;;;5114136;27;20206;-70
2023/01/05 00:35:32;;;;;;;18.70;4.97;;;9.30;99.90;;;;;;5132358;27;20255;-69
2023/01/05 00:38:01;;;;;;;18.97;4.93;;;9.20;99.90;;;;;;5132077;27;20298;-71
2023/01/05 00:40:30;;;;;;;22.00;4.93;;;9.20;99.90;;;;;;5132548;27;20657;-69
2023/01/05 00:43:00;;;;;;;22.30;4.83;;;9.20;99.90;;;;;;5132620;27;20193;-69
2023/01/05 00:45:28;;;;;;;26.87;5.30;;;9.20;99.90;;;;;;5114690;27;20188;-71
2023/01/05 00:48:00;;;;;;;22.67;6.10;;;9.30;99.90;;;;;;5111734;28;20205;-72
2023/01/05 00:50:29;;;;;;;27.10;5.80;;;9.30;99.90;;;;;;5093446;28;20208;-72
2023/01/05 00:52:57;;;;;;;25.50;5.50;;;9.30;99.90;;;;;;5111750;28;20342;-70
2023/01/05 00:55:26;;;;;;;22.07;5.53;;;9.30;99.90;;;;;;5128000;27;20204;-70
2023/01/05 00:57:56;;;;;;;19.70;5.87;;;9.30;99.90;;;;;;5130037;27;20204;-73
2023/01/05 01:00:25;;;;;;;30.17;5.50;;;9.30;99.90;;;;;;5134701;27;20687;-73
2023/01/05 01:02:54;;;;;;;22.80;5.90;;;9.30;99.90;;;;;;5134749;27;20611;-71
2023/01/05 01:05:24;;;;;;;23.00;5.13;;;9.30;99.90;;;;;;5134689;27;20202;-69
2023/01/05 01:07:54;;;;;;;19.37;5.67;;;9.30;99.90;;;;;;5134804;27;20287;-70
2023/01/05 01:10:24;;;;;;;27.23;5.57;;;9.30;99.90;;;;;;5153172;27;20623;-73
2023/01/05 01:12:53;;;;;;;23.63;6.63;;;9.30;99.90;;;;;;5134885;27;20206;-72
2023/01/05 01:15:22;;;;;;;24.07;6.33;;;9.30;99.90;;;;;;5153246;27;20194;-72
2023/01/05 01:17:51;;;;;;;25.17;5.23;;;9.30;99.90;;;;;;5153270;27;20192;-71
2023/01/05 01:20:20;;;;;;;28.20;6.67;;;9.30;99.90;;;;;;5153050;27;20254;-70
2023/01/05 01:22:50;;;;;;;29.23;5.70;;;9.30;99.90;;;;;;5153378;27;20187;-71
2023/01/05 01:25:20;;;;;;;27.03;5.87;;;9.40;99.90;;;;;;5132514;27;20227;-70
2023/01/05 01:27:49;;;;;;;31.73;6.10;;;9.30;99.90;;;;;;5135344;27;20201;-69
2023/01/05 01:30:18;;;;;;;25.23;6.03;;;9.30;99.90;;;;;;5127987;27;20662;-73
2023/01/05 01:32:47;;;;;;;26.10;6.20;;;9.30;99.90;;;;;;5101070;28;20203;-71
2023/01/05 01:35:17;;;;;;;22.60;5.63;;;9.30;99.90;;;;;;5116085;28;20223;-71
2023/01/05 01:37:46;;;;;;;26.33;6.33;;;9.30;99.90;;;;;;5112870;27;20315;-72
2023/01/05 01:40:16;;;;;;;20.60;5.53;;;9.30;99.90;;;;;;5094736;28;20542;-73
2023/01/05 01:42:45;;;;;;;27.03;6.80;;;9.30;99.90;;;;;;5094188;28;20220;-71
2023/01/05 01:45:20;;;;;;;36.50;6.10;;;9.30;99.90;;;;;;5111783;28;20193;-72
2023/01/05 01:47:53;;;;;;;21.47;6.30;;;9.40;99.90;;;;;;5114557;28;20276;-72
2023/01/05 01:50:27;;;;;;;23.47;5.77;;;9.40;99.90;;;;;;5115695;28;20234;-69
2023/01/05 01:53:00;;;;;;;21.60;5.90;;;9.30;99.90;;;;;;5115631;28;20190;-70
2023/01/05 01:55:33;;;;;;;20.27;6.13;;;9.30;99.90;;;;;;5105356;28;20228;-72
2023/01/05 01:58:06;;;;;;;21.63;5.50;;;9.30;99.90;;;;;;5116104;28;20193;-72
2023/01/05 02:00:35;;;;;;;21.50;5.17;;;9.30;99.90;;;;;;5115482;28;20266;-71
2023/01/05 02:03:05;;;;;;;19.73;5.93;;;9.30;99.90;;;;;;5115317;28;20184;-71
2023/01/05 02:05:36;;;;;;;24.70;5.00;;;9.30;99.90;;;;;;5097249;28;20196;-72
2023/01/05 02:08:11;;;;;;;22.37;5.67;;;9.30;99.90;;;;;;5115281;28;20667;-71
2023/01/05 02:10:57;;;;;;;19.93;4.87;;;9.40;99.90;;;;;;5096645;28;20226;-72
2023/01/05 02:13:40;;;;;;;16.63;4.90;;;9.30;99.90;;;;;;5096981;28;20224;-73
2023/01/05 02:16:22;;;;;;;17.73;4.77;;;9.30;99.90;;;;;;5115329;28;20658;-72
2023/01/05 02:19:13;;;;;;;15.63;4.97;;;9.30;99.90;;;;;;5096710;28;20204;-72
2023/01/05 02:21:59;;;;;;;19.20;4.50;;;9.30;99.90;;;;;;5096049;28;20663;-69
2023/01/05 02:25:12;;;;;;;24.37;4.63;;;9.30;99.90;;;;;;5105096;27;20193;-72
2023/01/05 02:27:50;;;;;;;17.90;4.77;;;9.30;99.90;;;;;;5096441;28;20208;-71
2023/01/05 02:30:47;;;;;;;22.43;5.00;;;9.30;99.90;;;;;;5096711;28;20200;-71
2023/01/05 02:33:27;;;;;;;15.63;4.90;;;9.30;99.90;;;;;;5096614;28;20200;-73
2023/01/05 02:36:03;;;;;;;17.67;4.80;;;9.30;99.90;;;;;;5096472;28;20201;-71
2023/01/05 02:38:38;;;;;;;16.77;4.57;;;9.30;99.90;;;;;;5096659;28;21063;-71
2023/01/05 02:41:13;;;;;;;14.20;4.30;;;9.30;99.90;;;;;;5096394;28;20314;-72
2023/01/05 02:43:45;;;;;;;14.13;5.03;;;9.30;99.90;;;;;;5096446;28;20250;-72
2023/01/05 02:46:15;;;;;;;11.87;4.60;;;9.20;99.90;;;;;;5114754;28;20191;-71
2023/01/05 02:48:49;;;;;;;16.23;5.17;;;9.30;99.90;;;;;;5114568;28;20202;-71
2023/01/05 02:51:23;;;;;;;20.97;8.50;;;9.30;99.90;;;;;;5096482;28;20215;-74
2023/01/05 02:54:00;;;;;;;16.00;4.40;;;9.30;99.90;;;;;;5096331;28;20208;-71
2023/01/05 02:56:32;;;;;;;15.03;4.23;;;9.30;99.90;;;;;;5096136;28;20290;-71
2023/01/05 02:59:05;;;;;;;10.27;3.80;;;9.20;99.90;;;;;;5096266;28;20282;-75
2023/01/05 03:01:40;;;;;;;10.83;3.97;;;9.20;99.90;;;;;;5096160;28;20226;-71
2023/01/05 03:04:13;;;;;;;12.20;4.30;;;9.20;99.90;;;;;;5095978;28;20204;-72
2023/01/05 03:06:55;;;;;;;10.20;3.73;;;9.20;99.90;;;;;;5096119;28;20233;-72
2023/01/05 03:09:29;;;;;;;8.37;3.53;;;9.20;99.90;;;;;;5095964;28;20216;-74
2023/01/05 03:14:54;;;;;;;13.20;3.50;;;9.20;99.90;;;;;;5095879;28;20205;-73
2023/01/05 03:17:29;;;;;;;6.67;2.93;;;9.20;99.90;;;;;;5114159;28;20592;-70
2023/01/05 03:20:00;;;;;;;10.70;3.20;;;9.10;99.90;;;;;;5095692;28;20212;-74
2023/01/05 03:36:59;;;;;;;7.67;2.60;;;9.10;99.90;;;;;;5134223;27;20185;-72
2023/01/05 03:39:31;;;;;;;5.27;2.90;;;9.00;99.90;;;;;;5134369;27;20194;-73
2023/01/05 03:42:04;;;;;;;6.43;3.60;;;9.00;99.90;;;;;;5115730;27;20311;-70
2023/01/05 03:44:36;;;;;;;8.63;3.67;;;9.00;99.90;;;;;;5134231;27;20195;-72
2023/01/05 03:47:06;;;;;;;7.37;2.70;;;9.10;99.90;;;;;;5115521;27;20236;-71
2023/01/05 03:49:37;;;;;;;8.23;3.67;;;9.00;99.90;;;;;;5115224;27;20195;-70
2023/01/05 03:52:06;;;;;;;9.83;2.93;;;9.00;99.90;;;;;;5134069;27;20834;-72
2023/01/05 03:54:35;;;;;;;5.87;3.23;;;9.00;99.90;;;;;;5115525;27;20215;-70
2023/01/05 03:57:04;;;;;;;7.30;3.03;;;9.00;99.90;;;;;;5115495;27;20192;-71
2023/01/05 03:59:33;;;;;;;7.90;3.10;;;9.00;99.90;;;;;;5115540;27;20564;-70
2023/01/05 04:02:03;;;;;;;6.40;2.90;;;9.00;99.90;;;;;;5115746;27;20226;-71
2023/01/05 04:04:33;;;;;;;9.27;3.77;;;9.00;99.90;;;;;;5115381;27;20292;-70
2023/01/05 04:07:07;;;;;;;13.37;3.73;;;9.00;99.90;;;;;;5115418;27;20279;-74
2023/01/05 04:09:36;;;;;;;4.50;3.00;;;9.10;99.90;;;;;;5115173;27;20199;-70
2023/01/05 04:12:06;;;;;;;6.23;3.10;;;9.00;99.90;;;;;;5112957;27;20238;-72
2023/01/05 04:14:39;;;;;;;5.53;3.23;;;9.00;99.90;;;;;;5115009;27;20208;-70
2023/01/05 04:17:09;;;;;;;8.07;3.53;;;9.00;99.90;;;;;;5115135;27;20217;-71
2023/01/05 04:19:39;;;;;;;7.63;3.13;;;9.00;99.90;;;;;;5114817;27;20203;-72
2023/01/05 04:22:10;;;;;;;6.53;3.37;;;9.00;99.90;;;;;;5114860;27;20219;-70
2023/01/05 04:24:39;;;;;;;4.87;3.03;;;9.00;99.90;;;;;;5114674;27;20203;-70
2023/01/05 04:27:08;;;;;;;5.87;2.80;;;9.00;99.90;;;;;;5114633;27;20251;-71
2023/01/05 04:29:39;;;;;;;3.10;2.30;;;8.90;99.90;;;;;;5114662;27;20236;-74
2023/01/05 04:32:08;;;;;;;4.07;2.30;;;8.90;99.90;;;;;;5114734;27;20199;-73
2023/01/05 04:34:38;;;;;;;3.87;1.90;;;8.90;99.90;;;;;;5114628;27;20204;-70
2023/01/05 04:37:09;;;;;;;5.67;2.10;;;8.80;99.90;;;;;;5114703;27;20665;-71
2023/01/05 04:39:38;;;;;;;3.53;2.83;;;8.80;99.90;;;;;;5133025;27;20628;-72
2023/01/05 04:42:08;;;;;;;5.40;2.40;;;8.80;99.90;;;;;;5098785;28;20600;-72
2023/01/05 04:44:38;;;;;;;3.80;2.53;;;8.80;99.90;;;;;;5078823;28;20296;-70
2023/01/05 04:47:07;;;;;;;4.00;2.30;;;8.80;99.90;;;;;;5078198;28;20673;-71
2023/01/05 04:49:40;;;;;;;9.97;3.03;;;8.80;99.90;;;;;;5087626;28;20205;-73
2023/01/05 04:52:12;;;;;;;9.33;3.57;;;8.70;99.90;;;;;;5073623;28;20215;-73
2023/01/05 04:54:41;;;;;;;9.90;3.50;;;8.70;99.90;;;;;;5091736;28;20559;-72
2023/01/05 04:57:10;;;;;;;7.50;3.20;;;8.70;99.90;;;;;;5081900;28;20205;-72
2023/01/05 04:59:40;;;;;;;12.37;3.53;;;8.70;99.90;;;;;;5072821;28;20208;-70
2023/01/05 05:02:10;;;;;;;9.00;3.00;;;8.70;99.90;;;;;;5073561;28;20220;-72
2023/01/05 05:04:43;;;;;;;10.77;3.40;;;8.70;99.90;;;;;;5073493;28;20219;-70
2023/01/05 05:07:14;;;;;;;9.37;3.70;;;8.70;99.90;;;;;;5073622;28;20564;-72
2023/01/05 05:09:43;;;;;;;9.23;3.83;;;8.60;99.90;;;;;;5073567;28;20230;-73
2023/01/05 05:12:12;;;;;;;7.23;3.50;;;8.60;99.90;;;;;;5102510;28;20247;-69
2023/01/05 05:14:41;;;;;;;10.70;3.67;;;8.60;99.90;;;;;;5131619;28;20195;-73
2023/01/05 05:17:10;;;;;;;9.83;4.20;;;8.60;99.90;;;;;;5128037;28;20603;-71
2023/01/05 05:19:40;;;;;;;11.67;4.10;;;8.60;99.90;;;;;;5113009;28;20317;-72
2023/01/05 05:22:10;;;;;;;8.87;3.83;;;8.50;99.90;;;;;;5113043;28;20195;-72
2023/01/05 05:24:52;;;;;;;16.67;3.93;;;8.60;99.90;;;;;;5131259;28;20195;-70
2023/01/05 05:27:23;;;;;;;11.00;3.93;;;8.60;99.90;;;;;;5077910;28;20829;-71
2023/01/05 05:29:52;;;;;;;21.27;4.47;;;8.60;99.90;;;;;;5093355;28;20204;-71
2023/01/05 05:32:20;;;;;;;15.43;4.00;;;8.60;99.90;;;;;;5111005;28;20196;-71
2023/01/05 05:34:50;;;;;;;13.77;4.23;;;8.60;99.90;;;;;;5111133;28;20196;-73
2023/01/05 05:37:18;;;;;;;13.53;4.00;;;8.50;99.90;;;;;;5106303;28;20583;-72
2023/01/05 05:39:47;;;;;;;10.37;4.40;;;8.50;99.90;;;;;;5091492;28;20250;-70
2023/01/05 05:42:18;;;;;;;14.53;4.87;;;8.50;99.90;;;;;;5091373;28;20194;-72
2023/01/05 05:44:46;;;;;;;12.53;3.70;;;8.50;99.90;;;;;;5091258;28;20570;-70
2023/01/05 05:47:15;;;;;;;15.23;4.60;;;8.50;99.90;;;;;;5091266;28;20284;-71
2023/01/05 05:49:44;;;;;;;14.67;4.03;;;8.50;99.90;;;;;;5091235;28;20258;-72
2023/01/05 05:52:13;;;;;;;16.17;5.30;;;8.40;99.90;;;;;;5091400;28;20558;-70
2023/01/05 05:54:42;;;;;;;18.37;4.20;;;8.50;99.90;;;;;;5091485;28;20197;-71
2023/01/05 05:57:11;;;;;;;12.57;4.10;;;8.50;99.90;;;;;;5091231;28;20238;-73
2023/01/05 05:59:41;;;;;;;13.37;3.70;;;8.50;99.90;;;;;;5091358;28;20196;-71
2023/01/05 06:02:10;;;;;;;13.40;3.90;;;8.50;99.90;;;;;;5091219;28;20784;-72
2023/01/05 06:04:39;;;;;;;17.23;4.33;;;8.40;99.90;;;;;;5091351;28;20590;-72
2023/01/05 06:07:08;;;;;;;16.37;4.50;;;8.40;99.90;;;;;;5091148;28;20200;-71
2023/01/05 06:09:37;;;;;;;17.97;4.83;;;8.40;99.90;;;;;;5091281;28;20609;-70
2023/01/05 06:12:06;;;;;;;14.00;4.10;;;8.40;99.90;;;;;;5093934;28;20196;-72
2023/01/05 06:14:35;;;;;;;14.80;3.87;;;8.40;99.90;;;;;;5076961;28;20563;-71
2023/01/05 06:17:05;;;;;;;16.37;3.90;;;8.30;99.90;;;;;;5095247;28;20265;-70
2023/01/05 06:19:34;;;;;;;16.70;3.97;;;8.30;99.90;;;;;;5094961;28;20209;-73
2023/01/05 06:22:03;;;;;;;20.33;3.70;;;8.20;99.90;;;;;;5094889;28;20655;-72
2023/01/05 06:24:32;;;;;;;16.03;3.97;;;8.20;99.90;;;;;;5094521;28;20320;-71
2023/01/05 06:27:01;;;;;;;13.97;3.27;;;8.20;99.90;;;;;;5094600;28;20228;-70
2023/01/05 06:29:29;;;;;;;14.43;3.37;;;8.10;99.90;;;;;;5094599;28;20201;-71
2023/01/05 06:31:58;;;;;;;10.77;4.10;;;8.10;99.90;;;;;;5094602;28;20606;-69
2023/01/05 06:34:29;;;;;;;10.80;3.07;;;8.10;99.90;;;;;;5094559;28;20209;-72
2023/01/05 06:36:58;;;;;;;6.93;3.07;;;8.10;99.90;;;;;;5094333;28;20198;-72
2023/01/05 06:39:29;;;;;;;7.37;3.27;;;8.10;99.90;;;;;;5094425;28;20645;-69
2023/01/05 06:41:58;;;;;;;6.83;3.43;;;8.10;99.90;;;;;;5094413;28;20708;-71
2023/01/05 06:44:27;;;;;;;7.40;3.10;;;8.00;99.90;;;;;;5094769;28;20232;-70
2023/01/05 06:46:56;;;;;;;9.77;2.90;;;8.00;99.90;;;;;;5094022;28;20742;-70
2023/01/05 06:49:25;;;;;;;6.67;3.03;;;7.90;99.90;;;;;;5094214;28;20230;-71
2023/01/05 06:51:55;;;;;;;6.73;2.83;;;7.90;99.90;;;;;;5094117;28;20192;-71
2023/01/05 06:54:24;;;;;;;5.97;2.93;;;7.90;99.90;;;;;;5094367;28;20670;-72
2023/01/05 06:56:53;;;;;;;11.30;3.27;;;7.90;99.90;;;;;;5093919;28;20204;-69
2023/01/05 06:59:22;;;;;;;11.10;3.13;;;7.80;99.90;;;;;;5094099;28;20680;-70
2023/01/05 07:01:51;;;;;;;7.03;3.70;;;7.80;99.90;;;;;;5094147;28;20216;-71
2023/01/05 07:04:20;;;;;;;24.97;12.33;;;7.80;99.90;;;;;;5093862;28;20269;-71
2023/01/05 07:06:49;;;;;;;13.23;3.53;;;7.80;99.90;;;;;;5093837;28;20189;-70
2023/01/05 07:09:19;;;;;;;12.17;3.70;;;7.80;99.90;;;;;;5093884;28;20723;-69
2023/01/05 07:11:48;;;;;;;5.83;2.70;;;7.80;99.90;;;;;;5093804;28;20718;-71
2023/01/05 07:14:17;;;;;;;6.60;3.17;;;7.80;99.90;;;;;;5093810;28;20250;-71
2023/01/05 07:16:45;;;;;;;11.70;3.30;;;7.80;99.90;;;;;;5093758;28;20205;-70
2023/01/05 07:19:14;;;;;;;5.23;2.77;;;7.80;99.90;;;;;;5093685;28;20188;-72
2023/01/05 07:21:43;;;;;;;5.70;2.83;;;7.70;99.90;;;;;;5093629;28;20293;-70
2023/01/05 07:24:12;;;;;;;11.27;4.30;;;7.70;99.90;;;;;;5092969;28;20311;-71
2023/01/05 07:26:43;;;;;;;9.93;3.10;;;7.70;99.90;;;;;;5093339;28;20274;-70
2023/01/05 07:29:11;;;;;;;10.50;3.33;;;7.70;99.90;;;;;;5093460;28;20650;-72
2023/01/05 07:31:40;;;;;;;9.10;2.80;;;7.70;99.90;;;;;;5093359;28;20196;-73
2023/01/05 07:34:09;;;;;;;8.87;3.30;;;7.60;99.90;;;;;;5093476;28;20329;-72
2023/01/05 07:36:38;;;;;;;4.67;2.97;;;7.60;99.90;;;;;;5093273;28;20275;-70
2023/01/05 07:39:07;;;;;;;4.30;2.33;;;7.60;99.90;;;;;;5093389;28;20204;-69
2023/01/05 07:41:36;;;;;;;8.03;3.30;;;7.50;99.90;;;;;;5093313;28;20199;-70
2023/01/05 07:44:07;;;;;;;7.13;3.70;;;7.50;99.90;;;;;;5075082;28;20585;-70
2023/01/05 07:46:36;;;;;;;9.13;3.07;;;7.50;99.90;;;;;;5093277;28;20211;-70
2023/01/05 07:49:05;;;;;;;13.30;2.90;;;7.50;99.90;;;;;;5093091;28;20654;-70
2023/01/05 07:51:34;;;;;;;10.40;2.80;;;7.50;99.90;;;;;;5093073;28;20192;-71
2023/01/05 07:54:03;;;;;;;11.27;6.37;;;7.50;99.90;;;;;;5093083;28;20216;-71
2023/01/05 07:56:32;;;;;;;7.93;3.40;;;7.50;99.90;;;;;;5092957;28;20196;-70
2023/01/05 07:59:01;;;;;;;6.13;3.47;;;7.50;99.90;;;;;;5092981;28;20226;-72
2023/01/05 08:01:31;;;;;;;5.57;2.90;;;7.50;99.90;;;;;;5092791;28;20669;-70
2023/01/05 08:04:00;;;;;;;7.67;3.47;;;7.50;99.90;;;;;;5092816;28;20270;-71
2023/01/05 08:06:29;;;;;;;9.37;3.33;;;7.50;99.90;;;;;;5092748;28;20202;-70
2023/01/05 08:10:27;;;;;;;4.17;3.20;;;7.50;99.90;;;;;;5092697;28;20418;-70
2023/01/05 08:11:46;;;;;;;9.00;3.20;;;7.50;99.90;;;;;;5092512;28;20652;-73
2023/01/05 08:14:15;;;;;;;6.73;3.40;;;7.50;99.90;;;;;;5092916;28;20192;-71
2023/01/05 08:16:46;;;;;;;6.33;3.33;;;7.50;99.90;;;;;;5092493;28;20204;-71
2023/01/05 08:19:14;;;;;;;9.93;4.03;;;7.50;99.90;;;;;;5092478;28;20204;-72
2023/01/05 08:21:43;;;;;;;11.33;3.67;;;7.50;99.90;;;;;;5092379;28;20201;-70
2023/01/05 08:24:12;;;;;;;9.87;4.67;;;7.50;99.90;;;;;;5092512;28;20287;-71
2023/01/05 08:26:41;;;;;;;8.90;4.63;;;7.50;99.90;;;;;;5092131;28;20319;-70
2023/01/05 08:29:10;;;;;;;8.33;4.53;;;7.60;99.90;;;;;;5092417;28;20234;-69
2023/01/05 08:31:41;;;;;;;8.43;4.20;;;7.60;99.90;;;;;;5092329;28;20241;-71
2023/01/05 08:34:11;;;;;;;9.87;3.37;;;7.60;99.90;;;;;;5092009;28;20688;-69
2023/01/05 08:36:40;;;;;;;5.00;3.60;;;7.60;99.90;;;;;;5092120;28;20206;-70
2023/01/05 08:39:10;;;;;;;9.37;3.53;;;7.50;99.90;;;;;;5092049;28;20195;-71
2023/01/05 08:41:40;;;;;;;10.63;3.40;;;7.50;99.90;;;;;;5092010;28;20207;-70
2023/01/05 08:44:13;;;;;;;5.97;3.30;;;7.50;99.90;;;;;;5092130;28;20212;-72
2023/01/05 08:46:42;;;;;;;10.97;3.40;;;7.50;99.90;;;;;;5092175;28;20197;-70
2023/01/05 08:49:12;;;;;;;12.97;4.27;;;7.60;99.90;;;;;;5092051;28;20237;-72
2023/01/05 08:51:41;;;;;;;10.73;3.37;;;7.60;99.90;;;;;;5091923;28;20189;-71
2023/01/05 08:54:10;;;;;;;8.70;2.77;;;7.60;99.90;;;;;;5091721;28;20208;-69
2023/01/05 08:56:39;;;;;;;12.57;3.33;;;7.60;99.90;;;;;;5092080;28;20204;-70
2023/01/05 08:59:12;;;;;;;12.37;6.40;;;7.60;99.90;;;;;;5091746;28;20615;-70
2023/01/05 09:01:41;;;;;;;12.77;3.43;;;7.60;99.90;;;;;;5091701;28;20235;-69
2023/01/05 09:04:10;;;;;;;10.50;3.07;;;7.60;99.90;;;;;;5091517;28;20200;-69
2023/01/05 09:06:41;;;;;;;11.73;3.50;;;7.60;99.90;;;;;;5091757;28;20192;-70
2023/01/05 09:09:10;;;;;;;7.37;3.10;;;7.60;99.90;;;;;;5091768;28;20197;-70
2023/01/05 09:11:40;;;;;;;5.13;3.07;;;7.60;99.90;;;;;;5091710;28;20208;-71
2023/01/05 09:14:14;;;;;;;4.33;2.70;;;7.70;99.90;;;;;;5091741;28;20208;-70
2023/01/05 09:16:43;;;;;;;7.23;2.93;;;7.70;99.90;;;;;;5091687;28;20188;-70
2023/01/05 09:19:32;;;;;;;6.00;3.63;;;7.70;99.90;;;;;;5091468;28;20216;-70
2023/01/05 09:22:02;;;;;;;5.83;2.97;;;7.70;99.90;;;;;;5091508;28;20192;-70
2023/01/05 09:24:31;;;;;;;10.03;3.47;;;7.70;99.90;;;;;;5091402;28;20208;-68
2023/01/05 09:27:00;;;;;;;9.40;4.83;;;7.60;99.90;;;;;;5091376;28;20224;-70
2023/01/05 09:29:29;;;;;;;9.73;4.00;;;7.60;99.90;;;;;;5091525;28;20192;-71
2023/01/05 09:31:58;;;;;;;8.53;2.70;;;7.60;99.90;;;;;;5091763;28;20197;-69
2023/01/05 09:34:26;;;;;;;5.37;2.73;;;7.50;99.90;;;;;;5091408;28;20642;-70
2023/01/05 09:36:55;;;;;;;8.27;3.37;;;7.50;99.90;;;;;;5091476;28;20200;-71
2023/01/05 09:39:26;;;;;;;6.73;3.13;;;7.50;99.90;;;;;;5091566;28;20200;-71
2023/01/05 09:41:57;;;;;;;9.87;4.20;;;7.50;99.90;;;;;;5091202;28;20196;-70
2023/01/05 09:44:30;;;;;;;6.33;2.93;;;7.50;99.90;;;;;;5091487;28;20196;-70
2023/01/05 09:47:03;;;;;;;4.93;3.30;;;7.50;99.90;;;;;;5093976;28;20208;-69
2023/01/05 09:49:34;;;;;;;8.03;4.57;;;7.60;99.90;;;;;;5095646;28;20208;-68
2023/01/05 09:52:08;;;;;;;7.23;3.53;;;7.60;99.90;;;;;;5095565;28;20234;-69
2023/01/05 09:54:39;;;;;;;3.30;3.00;;;7.60;99.90;;;;;;5095151;28;20214;-70
2023/01/05 09:57:16;;;;;;;5.60;2.80;;;7.60;99.90;;;;;;5095313;28;20184;-69
2023/01/05 09:59:48;;;;;;;5.30;2.77;;;7.60;99.90;;;;;;5095410;28;20650;-70
2023/01/05 10:02:32;;;;;;;7.87;3.17;;;7.60;99.90;;;;;;5095278;28;20194;-70
2023/01/05 10:05:04;;;;;;;4.87;3.00;;;7.60;99.90;;;;;;5095115;28;20751;-70
2023/01/05 10:07:41;;;;;;;4.87;3.13;;;7.60;99.90;;;;;;5094991;28;20204;-71
2023/01/05 10:10:24;;;;;;;6.67;3.90;;;7.60;99.90;;;;;;5095134;28;20192;-71
2023/01/05 10:13:04;;;;;;;7.30;3.47;;;7.60;99.90;;;;;;5095034;28;20724;-70
2023/01/05 10:15:40;;;;;;;13.90;7.23;;;7.60;99.90;;;;;;5094796;28;20568;-71
2023/01/05 10:18:12;;;;;;;6.97;4.13;;;7.60;99.90;;;;;;5095193;28;20200;-70
2023/01/05 10:20:50;;;;;;;5.63;4.20;;;7.60;99.90;;;;;;5094757;28;20203;-72
2023/01/05 10:23:34;;;;;;;6.63;3.73;;;7.60;99.90;;;;;;5094735;28;20295;-71
2023/01/05 10:26:10;;;;;;;4.83;3.53;;;7.60;99.90;;;;;;5094340;28;20248;-71
2023/01/05 10:28:45;;;;;;;6.87;2.87;;;7.60;99.90;;;;;;5094744;28;20291;-69
2023/01/05 10:31:23;;;;;;;9.23;4.20;;;7.70;99.90;;;;;;5094747;28;20223;-71
2023/01/05 10:33:58;;;;;;;7.03;3.87;;;7.70;99.90;;;;;;5099024;28;20188;-72
2023/01/05 10:36:46;;;;;;;13.47;4.47;;;7.60;99.90;;;;;;5114999;28;20192;-70
2023/01/05 10:40:05;;;;;;;5.50;3.87;;;7.50;99.90;;;;;;5115011;28;20628;-72
2023/01/05 10:42:54;;;;;;;6.87;3.70;;;7.60;99.90;;;;;;5052041;28;20233;-72
2023/01/05 10:45:29;;;;;;;6.53;3.17;;;7.60;99.90;;;;;;5051910;28;20225;-70
2023/01/05 10:47:59;;;;;;;4.07;3.00;;;7.60;99.90;;;;;;5051892;28;20209;-70
2023/01/05 10:50:35;;;;;;;6.60;3.63;;;7.50;99.90;;;;;;5051778;28;20252;-70
2023/01/05 10:53:10;;;;;;;7.43;4.20;;;7.50;99.90;;;;;;5051769;28;20197;-69
2023/01/05 10:55:58;;;;;;;8.53;4.07;;;7.50;99.90;;;;;;5051851;28;20651;-71
2023/01/05 10:58:29;;;;;;;5.30;3.50;;;7.50;99.90;;;;;;5051692;28;20206;-69
2023/01/05 11:01:01;;;;;;;7.03;4.30;;;7.30;99.90;;;;;;5051624;28;20692;-71
2023/01/05 11:03:37;;;;;;;5.87;3.40;;;7.30;99.90;;;;;;5068201;28;20213;-70
2023/01/05 11:06:29;;;;;;;7.03;4.40;;;7.40;99.90;;;;;;5051389;28;20319;-72
2023/01/05 11:09:07;;;;;;;6.87;4.03;;;7.40;99.90;;;;;;5051461;28;20202;-71
2023/01/05 11:11:36;;;;;;;12.00;6.17;;;7.50;99.90;;;;;;5051468;28;20208;-71
2023/01/05 11:14:13;;;;;;;11.63;5.63;;;7.50;99.90;;;;;;5051627;28;20220;-70
2023/01/05 11:16:47;;;;;;;13.43;5.90;;;7.50;99.90;;;;;;5051244;28;20198;-71
2023/01/05 11:19:18;;;;;;;15.20;6.30;;;7.50;99.90;;;;;;5073255;28;20203;-71
2023/01/05 11:21:48;;;;;;;8.17;5.00;;;7.40;99.90;;;;;;5113828;28;20199;-70
2023/01/05 11:24:31;;;;;;;11.87;7.00;;;7.30;99.90;;;;;;5114035;28;20184;-70
2023/01/05 11:27:02;;;;;;;17.13;7.03;;;7.30;99.90;;;;;;5113639;28;20235;-70
2023/01/05 11:29:32;;;;;;;10.23;5.50;;;7.30;99.90;;;;;;5113775;28;20291;-71
2023/01/05 11:32:03;;;;;;;6.00;4.13;;;7.30;99.90;;;;;;5113858;28;20249;-71
2023/01/05 11:34:41;;;;;;;5.37;4.03;;;7.30;99.90;;;;;;5113810;28;20199;-71
2023/01/05 11:37:22;;;;;;;10.27;7.00;;;7.20;99.90;;;;;;5113706;28;20222;-70
2023/01/05 11:39:54;;;;;;;10.53;8.37;;;7.10;99.90;;;;;;5113587;28;20196;-71
2023/01/05 11:42:30;;;;;;;3.93;3.50;;;7.20;99.90;;;;;;5113820;28;20195;-71
2023/01/05 11:45:03;;;;;;;4.03;2.90;;;7.20;99.90;;;;;;5113619;28;20219;-70
2023/01/05 11:47:35;;;;;;;16.37;10.47;;;7.20;99.90;;;;;;5113411;28;20249;-71
2023/01/05 11:50:23;;;;;;;3.57;3.27;;;7.20;99.90;;;;;;5113368;28;20188;-72
2023/01/05 11:52:54;;;;;;;4.77;2.77;;;7.20;99.90;;;;;;5113192;28;20692;-71
2023/01/05 11:55:30;;;;;;;2.90;2.50;;;7.10;99.90;;;;;;5113411;28;20196;-72
2023/01/05 11:58:13;;;;;;;2.77;2.53;;;7.10;99.90;;;;;;5113203;28;20200;-73
2023/01/05 12:01:01;;;;;;;3.67;2.77;;;7.10;99.90;;;;;;5095120;28;20200;-71
2023/01/05 12:03:47;;;;;;;3.83;3.00;;;7.20;99.90;;;;;;5113254;28;20192;-69
2023/01/05 12:06:30;;;;;;;3.73;2.87;;;7.10;99.90;;;;;;5113170;28;20681;-71
2023/01/05 12:09:06;;;;;;;2.87;2.67;;;7.00;99.90;;;;;;5112618;28;20187;-70
2023/01/05 12:11:44;;;;;;;3.53;2.43;;;7.00;99.90;;;;;;5113156;28;20275;-71
2023/01/05 12:14:28;;;;;;;3.03;2.63;;;6.90;99.90;;;;;;5113041;28;20203;-70
2023/01/05 12:17:05;;;;;;;13.83;7.57;;;6.80;99.90;;;;;;5112892;28;20606;-70
2023/01/05 12:19:53;;;;;;;6.53;3.30;;;7.00;99.90;;;;;;5112940;28;20198;-71
2023/01/05 12:22:47;;;;;;;3.63;3.17;;;7.00;99.90;;;;;;5112739;28;20204;-71
2023/01/05 12:25:33;;;;;;;4.83;3.97;;;6.90;99.90;;;;;;5112843;28;20524;-70
2023/01/05 12:28:27;;;;;;;5.23;3.50;;;6.90;99.90;;;;;;5112611;28;20220;-72
2023/01/05 12:31:23;;;;;;;8.73;5.03;;;6.90;99.90;;;;;;5112688;28;20207;-72
2023/01/05 12:34:42;;;;;;;6.00;4.47;;;6.90;99.90;;;;;;5112396;28;20547;-71
2023/01/05 12:37:32;;;;;;;22.33;13.33;;;7.00;99.90;;;;;;5100210;28;20298;-70
2023/01/05 12:40:27;;;;;;;6.27;4.33;;;7.00;99.90;;;;;;5112307;28;20546;-71
2023/01/05 12:43:00;;;;;;;3.77;3.20;;;7.00;99.90;;;;;;5112613;28;20680;-68
2023/01/05 12:45:40;;;;;;;2.70;2.47;;;6.90;99.90;;;;;;5112427;28;20692;-70
2023/01/05 12:48:13;;;;;;;1.93;1.70;;;6.90;99.90;;;;;;5112368;28;20227;-67
2023/01/05 12:50:48;;;;;;;2.33;2.13;;;6.70;99.90;;;;;;5112202;28;20196;-72
2023/01/05 12:53:27;;;;;;;2.87;2.20;;;6.70;99.90;;;;;;5112220;28;20191;-69
2023/01/05 12:56:00;;;;;;;2.43;2.23;;;6.70;99.90;;;;;;5112299;28;20257;-73
2023/01/05 12:58:33;;;;;;;1.90;1.80;;;6.70;99.90;;;;;;5112193;28;20203;-70
2023/01/05 13:01:06;;;;;;;2.07;1.97;;;6.60;99.90;;;;;;5112181;28;20286;-71
2023/01/05 13:03:43;;;;;;;1.77;1.67;;;6.40;99.90;;;;;;5094092;28;20290;-72
2023/01/05 13:06:16;;;;;;;5.10;2.37;;;6.30;99.90;;;;;;5112042;28;20226;-72
2023/01/05 13:08:53;;;;;;;1.70;1.60;;;6.10;99.90;;;;;;5112206;28;20195;-72
2023/01/05 13:11:27;;;;;;;2.10;1.90;;;5.90;99.90;;;;;;5112042;28;20294;-70
2023/01/05 13:13:59;;;;;;;3.33;3.00;;;5.90;99.90;;;;;;5111957;28;20198;-72
2023/01/05 13:16:35;;;;;;;5.57;2.50;;;5.90;99.90;;;;;;5093487;28;20678;-71
2023/01/05 13:19:10;;;;;;;3.83;2.73;;;5.80;99.90;;;;;;5111993;28;20248;-69
2023/01/05 13:21:42;;;;;;;2.63;2.43;;;5.90;99.90;;;;;;5114070;28;20229;-69
2023/01/05 13:24:21;;;;;;;3.30;2.80;;;5.80;99.90;;;;;;5116258;28;20191;-70
2023/01/05 13:26:51;;;;;;;4.60;3.40;;;5.70;99.90;;;;;;5115889;28;20310;-70
2023/01/05 13:29:24;;;;;;;3.07;2.20;;;5.80;99.90;;;;;;5116221;28;20248;-70
2023/01/05 13:32:15;;;;;;;3.43;3.13;;;5.80;99.90;;;;;;5098121;28;20234;-70
2023/01/05 13:35:05;;;;;;;2.97;2.43;;;5.70;99.90;;;;;;5116095;28;20223;-72
2023/01/05 13:38:14;;;;;;;3.03;2.23;;;5.70;99.90;;;;;;5115902;28;20213;-72
2023/01/05 13:40:59;;;;;;;3.13;2.57;;;5.50;99.90;;;;;;5116018;28;20630;-69
2023/01/05 13:44:00;;;;;;;2.90;2.40;;;5.40;99.90;;;;;;5116042;28;20247;-71
2023/01/05 13:46:53;;;;;;;4.70;2.40;;;5.40;99.90;;;;;;5049905;28;20318;-70
2023/01/05 13:49:36;;;;;;;2.90;2.70;;;5.40;99.90;;;;;;5053004;28;20614;-71
2023/01/05 13:52:17;;;;;;;2.90;2.60;;;5.40;99.90;;;;;;5052958;28;20303;-72
2023/01/05 13:54:49;;;;;;;6.47;3.40;;;5.40;99.90;;;;;;5052682;28;20206;-72